Date,TemperatureHighF,TemperatureAvgF,TemperatureLowF,DewpointHighF,DewpointAvgF,DewpointLowF,HumidityHigh,HumidityAvg,HumidityLow,PressureMaxIn,PressureMinIn,WindSpeedMaxMPH,WindSpeedAvgMPH,GustSpeedMaxMPH,PrecipitationSumIn
2014-1-1,35,18,7,23,12,1,85,78,60,30.24,29.86,20,5,25,0.00
2014-1-2,18,9,1,8,1,-5,81,71,61,30.38,30.24,13,2,14,0.00
2014-1-3,38,24,3,25,14,-3,79,65,53,30.35,29.57,20,5,30,0.00
2014-1-4,39,27,14,28,19,11,88,73,58,29.97,29.54,17,5,26,0.00
2014-1-5,15,9,-1,11,0,-16,87,64,43,30.46,29.93,19,7,25,0.00
2014-1-6,8,-2,-12,-9,-16,-22,80,52,42,30.51,30.32,15,3,18,0.00
2014-1-7,39,19,-5,23,9,-13,79,65,49,30.31,29.94,11,2,17,0.00
2014-1-8,29,24,16,20,16,11,83,70,58,30.22,30.04,10,2,12,0.00
2014-1-9,30,21,16,24,16,11,89,84,78,30.20,29.95,5,1,7,0.00
2014-1-12,65,53,41,36,32,30,72,47,29,29.51,29.28,15,4,25,0.00
2014-1-13,49,40,33,34,29,23,85,65,42,29.75,29.49,12,3,17,0.00
2014-1-14,45,38,22,32,19,4,66,48,22,30.10,29.61,23,6,26,0.00
2014-1-15,40,32,17,26,17,8,68,54,40,30.13,29.65,11,2,17,0.00
2014-1-16,48,39,25,30,20,7,76,48,29,29.94,29.63,25,8,29,0.00
2014-1-17,35,26,18,18,4,-5,61,41,20,30.07,29.83,24,5,25,0.00
2014-1-18,50,36,23,28,21,16,74,54,38,29.97,29.60,27,7,32,0.00
2014-1-19,64,41,20,28,22,14,86,54,21,29.97,29.63,15,3,21,0.00
2014-1-20,51,40,15,30,21,5,68,48,32,30.21,29.82,32,10,33,0.00
2014-1-21,22,14,3,5,-3,-8,71,49,26,30.38,30.01,18,4,27,0.00
2014-1-22,38,25,8,19,8,-9,70,50,29,30.42,29.96,21,6,28,0.00
2014-1-23,17,7,1,-2,-7,-10,75,53,34,30.76,30.42,17,4,23,0.00
2014-1-24,46,27,0,20,6,-8,70,43,27,30.57,29.62,24,7,28,0.00
2014-1-25,49,41,28,36,27,18,76,58,36,29.87,29.58,17,5,24,0.00
2014-1-26,58,44,18,32,24,-10,86,49,27,30.08,29.48,24,8,37,0.00
2014-1-27,18,11,5,-3,-7,-12,62,44,31,30.41,30.08,20,5,27,0.00
2014-1-28,24,10,-2,4,-2,-8,85,60,37,30.41,30.19,9,1,14,0.00
2014-1-29,47,27,3,17,7,-5,82,48,21,30.19,29.65,16,4,24,0.00
2014-1-30,48,36,28,24,15,9,56,43,28,29.84,29.44,22,7,26,0.00
2014-1-31,28,22,20,19,15,10,93,73,53,29.94,29.77,13,3,19,0.00
2014-2-1,28,22,18,22,17,11,92,81,68,30.12,29.72,14,4,20,0.00
2014-2-2,25,14,5,12,4,-1,76,63,48,30.29,30.12,12,3,20,0.00
2014-2-3,36,20,4,22,10,-2,90,67,41,30.22,30.04,11,2,18,0.00
2014-2-4,28,22,12,22,18,8,91,85,75,30.09,29.86,18,5,30,0.00
2014-2-5,12,5,1,8,-3,-8,85,68,58,30.58,30.09,19,7,26,0.00
2014-2-6,10,3,-8,-3,-7,-16,75,61,48,30.58,30.35,7,1,11,0.00
2014-2-7,14,10,3,9,0,-5,79,65,55,30.35,30.09,6,1,10,0.00
2014-2-8,28,22,14,24,18,8,93,81,75,30.09,29.91,9,1,11,0.00
2014-2-9,26,18,10,24,13,2,93,78,66,30.32,30.01,13,4,16,0.00
2014-2-10,14,11,8,4,1,-2,74,63,52,30.40,30.30,8,2,14,0.00
2014-2-11,25,12,7,6,0,-3,72,58,42,30.37,30.11,6,1,10,0.00
2014-2-12,30,17,8,20,7,-1,72,65,60,30.11,29.95,6,1,11,0.00
2014-2-23,34,29,24,17,14,12,73,54,42,30.22,30.15,19,4,19,0.00
2014-2-24,40,30,24,19,14,8,72,51,34,30.21,29.98,10,2,14,0.00
2014-2-25,28,22,14,20,14,6,83,71,56,30.36,30.09,15,4,18,0.00
2014-2-26,31,19,3,15,7,-3,76,60,38,30.34,29.88,11,2,17,0.00
2014-2-27,32,25,19,17,9,1,79,52,27,30.02,29.75,14,3,17,0.00
2014-2-28,49,35,23,34,20,3,77,55,39,29.89,29.61,17,4,25,0.00
2014-3-1,30,19,5,24,13,0,87,78,60,30.29,29.87,16,6,22,0.00
2014-3-2,7,3,2,1,-5,-12,82,66,49,30.45,30.26,19,8,21,0.00
2014-3-3,23,10,-5,8,-5,-15,71,52,28,30.46,30.13,18,2,19,0.00
2014-3-4,42,26,9,25,14,3,80,60,46,30.12,29.83,11,2,15,0.06
2014-3-5,42,32,26,29,25,22,91,77,57,30.13,29.89,14,2,16,0.00
2014-3-6,47,34,19,34,27,18,95,78,57,30.13,29.77,14,2,14,0.00
2014-3-7,64,45,32,40,34,27,83,67,33,29.91,29.62,17,5,24,0.00
2014-3-8,39,32,23,26,22,18,83,69,54,30.20,29.91,14,5,22,0.00
2014-3-9,64,42,21,31,25,17,93,58,25,30.18,29.79,15,4,23,0.00
2014-3-10,78,57,40,36,31,26,57,39,20,29.79,29.46,12,3,16,0.00
2014-3-11,78,54,38,50,38,29,84,57,35,29.80,29.21,26,7,34,0.00
2014-3-12,56,42,31,32,26,21,79,57,27,30.07,29.80,18,6,25,0.00
2014-3-13,70,50,28,31,24,19,76,42,15,29.96,29.60,14,2,19,0.00
2014-3-14,64,54,38,29,23,18,55,31,19,29.82,29.51,18,5,26,0.00
2014-3-15,74,54,33,50,34,21,82,50,28,29.81,29.56,21,2,25,0.12
2014-3-16,46,35,25,36,23,16,87,64,37,30.10,29.75,20,8,27,0.00
2014-3-17,57,37,19,30,22,14,82,58,29,29.96,29.39,12,3,20,0.00
2014-3-18,64,51,42,38,32,25,68,49,32,29.51,29.22,17,5,23,0.00
2014-3-19,55,43,34,32,27,22,88,57,29,29.98,29.53,19,7,25,0.00
2014-3-20,72,51,30,32,26,21,77,44,17,29.93,29.62,25,4,30,0.00
2014-3-21,65,53,42,35,30,23,64,43,24,29.98,29.53,16,5,24,0.00
2014-3-22,45,36,26,31,18,6,87,52,25,30.33,29.98,15,7,21,0.00
2014-3-23,32,24,17,23,17,12,89,78,53,30.40,30.33,11,3,14,0.00
2014-3-24,38,33,27,32,28,16,95,82,44,30.13,30.06,4,0,5,0.06
2014-3-25,42,32,24,26,18,8,93,58,27,30.28,30.06,17,3,21,0.00
2014-3-26,60,40,28,41,27,14,93,62,30,30.05,29.51,22,6,35,0.16
2014-3-27,72,53,38,55,43,30,90,70,35,29.66,29.14,24,9,36,0.02
2014-3-28,48,38,30,38,31,26,94,76,59,30.00,29.66,12,2,15,0.00
2014-3-29,60,43,29,34,31,27,95,67,33,30.17,30.00,5,0,7,0.00
2014-3-30,74,58,41,39,35,32,76,45,25,29.99,29.55,16,2,24,0.00
2014-3-31,79,63,37,49,36,18,58,38,15,29.83,29.36,21,6,30,0.00
2014-4-1,53,41,28,30,25,18,74,53,40,29.97,29.77,14,1,24,0.00
2014-4-2,52,48,42,50,43,30,97,87,48,29.79,29.48,10,0,10,0.20
2014-4-3,62,50,38,58,48,34,98,94,83,29.63,29.38,9,1,13,0.01
2014-4-4,50,40,29,35,30,24,93,68,48,30.02,29.64,10,1,13,0.00
2014-4-5,63,45,26,35,30,22,97,61,29,30.04,29.84,9,1,13,0.00
2014-4-6,62,52,46,40,35,30,71,53,33,29.85,29.64,7,1,19,0.00
2014-4-7,62,52,42,44,40,35,81,65,40,29.70,29.57,14,2,18,0.00
2014-4-8,59,50,37,38,30,17,76,50,22,29.94,29.70,19,5,28,0.00
2014-4-9,80,57,31,40,31,23,74,42,18,29.93,29.53,18,4,25,0.00
2014-4-10,68,61,47,46,36,25,65,41,25,29.81,29.45,16,4,27,0.00
2014-4-11,77,60,41,43,34,26,74,42,22,29.87,29.66,11,2,16,0.00
2014-4-12,82,70,59,62,57,43,84,64,48,29.66,29.29,15,4,24,0.00
2014-4-13,74,59,35,62,52,32,94,78,60,29.62,29.20,21,7,30,1.41
2014-4-14,45,36,30,32,25,19,91,65,38,30.04,29.65,20,8,29,0.01
2014-4-15,58,42,25,32,26,20,94,57,28,30.07,29.80,12,2,15,0.00
2014-4-16,67,54,44,40,32,27,65,44,27,29.91,29.62,23,6,31,0.00
2014-4-17,51,42,36,35,32,29,83,68,52,30.16,29.91,11,1,16,0.00
2014-4-18,69,51,30,45,38,28,94,65,37,30.16,29.94,8,1,13,0.00
2014-4-19,78,64,49,50,45,41,77,53,30,29.96,29.82,13,0,18,0.00
2014-4-20,78,67,57,57,53,46,79,60,46,29.86,29.77,6,0,11,0.00
2014-4-21,75,65,55,60,54,38,91,69,40,29.87,29.75,6,0,8,0.03
2014-4-22,71,58,42,39,35,31,82,44,24,29.96,29.77,4,0,9,0.00
2014-4-23,81,66,54,52,42,35,53,42,29,29.79,29.40,11,1,18,0.00
2014-4-24,72,60,47,59,52,42,94,74,50,29.68,29.30,13,1,19,1.12
2014-4-25,79,62,41,49,43,39,93,57,25,29.73,29.58,0,0,9,0.00
2014-4-26,78,69,60,60,51,41,60,52,42,29.59,29.31,9,0,12,0.00
2014-4-27,78,69,60,64,57,38,93,69,27,29.31,29.04,1,0,2,0.34
2014-4-28,63,54,48,59,45,39,88,70,58,29.27,29.06,0,0,1,0.00
2014-4-29,48,45,43,46,41,37,95,87,76,29.72,29.25,0,0,0,0.30
2014-4-30,56,48,40,40,35,28,87,63,37,29.84,29.71,0,0,0,0.00
2014-5-1,56,49,42,39,37,33,79,62,49,29.86,29.77,0,0,0,0.00
2014-5-2,72,55,36,42,36,30,91,55,24,29.86,29.63,0,0,0,0.00
2014-5-3,78,63,45,51,43,34,79,50,31,29.75,29.63,0,0,4,0.00
2014-5-4,89,71,53,57,49,45,76,50,26,29.67,29.42,1,0,6,0.00
2014-5-5,77,64,58,56,49,45,68,59,38,29.51,29.45,0,0,3,0.00